EZY69RQ EGPH-EKCH
Flight info
| Callsign | EZY69RQ |
|---|---|
| Flight time | 1h 25m |
| Altitude | 37000 |
| Route | GRICE P600 ASNUD DCT ELSAN DCT VAXIT DCT ABINO T56 TESPI |
| Aircraft | A320/M-SDE3FGHIRWY/LB1 |
Departure
| Time | 2026-05-05 16:18 |
|---|---|
| Airport | Edinburgh Airport (EGPH) |
Arrival
| Time | 2026-05-05 17:43 |
|---|---|
| Airport | Copenhagen Kastrup Airport (EKCH) |
| Time | Latitude | Longitude | Altitude | Speed | Heading |
|---|---|---|---|---|---|
| 2026-05-05 15:49 | 55.94833 | -3.35808 | 117 ft | 0 kts | 208° |
| 2026-05-05 15:56 | 55.94834 | -3.35806 | 117 ft | 0 kts | 208° |
| 2026-05-05 16:06 | 55.94844 | -3.35796 | 113 ft | 3 kts | 208° |
| 2026-05-05 16:06 | 55.94862 | -3.35779 | 114 ft | 1 kts | 208° |
| 2026-05-05 16:06 | 55.94878 | -3.35761 | 113 ft | 3 kts | 229° |
| 2026-05-05 16:06 | 55.94887 | -3.35731 | 113 ft | 3 kts | 272° |
| 2026-05-05 16:07 | 55.94883 | -3.35696 | 113 ft | 3 kts | 298° |
| 2026-05-05 16:07 | 55.94881 | -3.35690 | 114 ft | 0 kts | 298° |
| 2026-05-05 16:10 | 55.94881 | -3.35691 | 116 ft | 0 kts | 298° |
| 2026-05-05 16:10 | 55.94883 | -3.35697 | 112 ft | 0 kts | 299° |
| 2026-05-05 16:10 | 55.94893 | -3.35728 | 114 ft | 8 kts | 299° |
| 2026-05-05 16:10 | 55.94929 | -3.35836 | 115 ft | 10 kts | 311° |
| 2026-05-05 16:11 | 55.94990 | -3.35853 | 115 ft | 9 kts | 23° |
| 2026-05-05 16:11 | 55.95100 | -3.36035 | 115 ft | 7 kts | 288° |
| 2026-05-05 16:12 | 55.95116 | -3.36119 | 113 ft | 7 kts | 289° |
| 2026-05-05 16:12 | 55.95125 | -3.36308 | 112 ft | 13 kts | 241° |
| 2026-05-05 16:13 | 55.94963 | -3.36789 | 114 ft | 17 kts | 238° |
| 2026-05-05 16:13 | 55.94900 | -3.36976 | 114 ft | 19 kts | 240° |
| 2026-05-05 16:13 | 55.94832 | -3.37173 | 115 ft | 18 kts | 239° |
| 2026-05-05 16:14 | 55.94711 | -3.37532 | 115 ft | 16 kts | 239° |
| 2026-05-05 16:14 | 55.94606 | -3.37842 | 113 ft | 14 kts | 239° |
| 2026-05-05 16:15 | 55.94467 | -3.38251 | 115 ft | 24 kts | 238° |
| 2026-05-05 16:15 | 55.94315 | -3.38698 | 113 ft | 14 kts | 238° |
| 2026-05-05 16:16 | 55.94329 | -3.38914 | 115 ft | 9 kts | 328° |
| 2026-05-05 16:16 | 55.94435 | -3.38913 | 114 ft | 6 kts | 57° |
| 2026-05-05 16:17 | 55.94615 | -3.38380 | 111 ft | 85 kts | 59° |
| 2026-05-05 16:17 | 55.95022 | -3.37176 | 121 ft | 139 kts | 60° |
| 2026-05-05 16:18 | 55.96023 | -3.34090 | 1482 ft | 150 kts | 54° |
| 2026-05-05 16:18 | 55.96822 | -3.32736 | 1951 ft | 169 kts | 43° |
| 2026-05-05 16:18 | 55.98842 | -3.29578 | 2746 ft | 218 kts | 43° |
| 2026-05-05 16:19 | 56.00088 | -3.27815 | 3342 ft | 239 kts | 30° |
| 2026-05-05 16:19 | 56.01730 | -3.27099 | 4245 ft | 250 kts | 1° |
| 2026-05-05 16:19 | 56.04737 | -3.30122 | 5815 ft | 263 kts | 302° |
| 2026-05-05 16:20 | 56.06223 | -3.35703 | 6000 ft | 230 kts | 298° |
| 2026-05-05 16:20 | 56.07665 | -3.41119 | 6575 ft | 257 kts | 298° |
| 2026-05-05 16:21 | 56.10375 | -3.45199 | 8362 ft | 269 kts | 345° |
| 2026-05-05 16:22 | 56.16184 | -3.44242 | 10591 ft | 304 kts | 5° |
| 2026-05-05 16:22 | 56.20603 | -3.43076 | 11675 ft | 330 kts | 5° |
| 2026-05-05 16:23 | 56.25219 | -3.41846 | 13194 ft | 341 kts | 5° |
| 2026-05-05 16:23 | 56.27584 | -3.41223 | 13951 ft | 346 kts | 5° |
| 2026-05-05 16:23 | 56.32399 | -3.39966 | 15296 ft | 354 kts | 5° |
| 2026-05-05 16:24 | 56.34849 | -3.39327 | 15980 ft | 357 kts | 5° |
| 2026-05-05 16:24 | 56.37322 | -3.38684 | 16656 ft | 361 kts | 4° |
| 2026-05-05 16:24 | 56.42341 | -3.37282 | 17999 ft | 371 kts | 9° |
| 2026-05-05 16:25 | 56.44809 | -3.35757 | 18609 ft | 380 kts | 21° |
| 2026-05-05 16:25 | 56.49350 | -3.30573 | 19725 ft | 391 kts | 31° |
| 2026-05-05 16:25 | 56.51602 | -3.27771 | 20285 ft | 394 kts | 31° |
| 2026-05-05 16:26 | 56.56175 | -3.22099 | 21358 ft | 402 kts | 31° |
| 2026-05-05 16:26 | 56.60835 | -3.16313 | 22396 ft | 410 kts | 31° |
| 2026-05-05 16:27 | 56.63192 | -3.13370 | 22909 ft | 413 kts | 31° |
| 2026-05-05 16:27 | 56.65436 | -3.10050 | 23399 ft | 421 kts | 42° |
| 2026-05-05 16:27 | 56.67313 | -3.05914 | 23851 ft | 429 kts | 54° |
| 2026-05-05 16:27 | 56.68716 | -3.01094 | 24258 ft | 435 kts | 66° |
| 2026-05-05 16:28 | 56.69569 | -2.95786 | 24671 ft | 440 kts | 79° |
| 2026-05-05 16:28 | 56.69860 | -2.90232 | 25078 ft | 443 kts | 87° |
| 2026-05-05 16:28 | 56.70014 | -2.84613 | 25467 ft | 446 kts | 87° |
| 2026-05-05 16:28 | 56.70164 | -2.78958 | 25865 ft | 449 kts | 87° |
| 2026-05-05 16:29 | 56.70313 | -2.73267 | 26262 ft | 452 kts | 87° |
| 2026-05-05 16:29 | 56.70461 | -2.67543 | 26658 ft | 454 kts | 87° |
| 2026-05-05 16:29 | 56.70608 | -2.61790 | 27047 ft | 457 kts | 87° |
| 2026-05-05 16:29 | 56.70753 | -2.55996 | 27432 ft | 459 kts | 87° |
| 2026-05-05 16:30 | 56.70898 | -2.50179 | 27808 ft | 462 kts | 88° |
| 2026-05-05 16:30 | 56.71041 | -2.44321 | 28193 ft | 464 kts | 88° |
| 2026-05-05 16:30 | 56.71183 | -2.38435 | 28569 ft | 467 kts | 88° |
| 2026-05-05 16:30 | 56.71322 | -2.32507 | 28941 ft | 469 kts | 88° |
| 2026-05-05 16:31 | 56.71455 | -2.26564 | 29298 ft | 472 kts | 88° |
| 2026-05-05 16:31 | 56.71585 | -2.20581 | 29646 ft | 474 kts | 88° |
| 2026-05-05 16:31 | 56.71715 | -2.14567 | 29984 ft | 477 kts | 88° |
| 2026-05-05 16:31 | 56.71844 | -2.08597 | 30284 ft | 479 kts | 88° |
| 2026-05-05 16:32 | 56.71963 | -2.02898 | 30541 ft | 481 kts | 88° |
| 2026-05-05 16:32 | 56.72075 | -1.97285 | 30792 ft | 483 kts | 88° |
| 2026-05-05 16:32 | 56.72196 | -1.91185 | 31060 ft | 485 kts | 88° |
| 2026-05-05 16:32 | 56.72317 | -1.85038 | 31323 ft | 487 kts | 88° |
| 2026-05-05 16:33 | 56.72435 | -1.78870 | 31637 ft | 488 kts | 89° |
| 2026-05-05 16:33 | 56.72552 | -1.72619 | 32020 ft | 487 kts | 89° |
| 2026-05-05 16:33 | 56.72663 | -1.66542 | 32371 ft | 487 kts | 89° |
| 2026-05-05 16:33 | 56.72771 | -1.60387 | 32726 ft | 486 kts | 89° |
| 2026-05-05 16:34 | 56.72876 | -1.54235 | 33092 ft | 486 kts | 89° |
| 2026-05-05 16:34 | 56.72978 | -1.48090 | 33459 ft | 485 kts | 89° |
| 2026-05-05 16:34 | 56.73076 | -1.41868 | 33832 ft | 485 kts | 89° |
| 2026-05-05 16:34 | 56.73170 | -1.35726 | 34183 ft | 485 kts | 89° |
| 2026-05-05 16:35 | 56.73260 | -1.29603 | 34489 ft | 484 kts | 89° |
| 2026-05-05 16:35 | 56.73346 | -1.23470 | 34793 ft | 484 kts | 89° |
| 2026-05-05 16:35 | 56.73430 | -1.17347 | 35086 ft | 484 kts | 89° |
| 2026-05-05 16:35 | 56.73511 | -1.11226 | 35352 ft | 484 kts | 89° |
| 2026-05-05 16:36 | 56.73591 | -1.05103 | 35621 ft | 484 kts | 89° |
| 2026-05-05 16:36 | 56.73671 | -0.98980 | 35889 ft | 484 kts | 89° |
| 2026-05-05 16:36 | 56.73748 | -0.92859 | 36148 ft | 483 kts | 89° |
| 2026-05-05 16:36 | 56.73820 | -0.86739 | 36407 ft | 483 kts | 89° |
| 2026-05-05 16:37 | 56.73865 | -0.82686 | 36577 ft | 483 kts | 89° |
| 2026-05-05 16:37 | 56.73927 | -0.76570 | 36830 ft | 483 kts | 89° |
| 2026-05-05 16:37 | 56.73987 | -0.70447 | 37042 ft | 483 kts | 89° |
| 2026-05-05 16:37 | 56.74047 | -0.64330 | 37099 ft | 482 kts | 89° |
| 2026-05-05 16:38 | 56.74161 | -0.52129 | 37098 ft | 481 kts | 89° |
| 2026-05-05 16:38 | 56.74261 | -0.39942 | 37092 ft | 481 kts | 90° |
| 2026-05-05 16:39 | 56.74347 | -0.27749 | 37092 ft | 481 kts | 90° |
| 2026-05-05 16:39 | 56.74417 | -0.15562 | 37093 ft | 481 kts | 90° |
| 2026-05-05 16:40 | 56.74483 | -0.03372 | 37097 ft | 481 kts | 90° |
| 2026-05-05 16:40 | 56.74534 | 0.08827 | 37103 ft | 482 kts | 90° |
| 2026-05-05 16:41 | 56.74570 | 0.20914 | 37105 ft | 482 kts | 90° |
| 2026-05-05 16:41 | 56.74592 | 0.33203 | 37100 ft | 482 kts | 91° |
| 2026-05-05 16:42 | 56.74610 | 0.45420 | 37097 ft | 482 kts | 91° |
| 2026-05-05 16:42 | 56.74611 | 0.57629 | 37098 ft | 482 kts | 91° |
| 2026-05-05 16:43 | 56.74603 | 0.69842 | 37095 ft | 482 kts | 91° |
| 2026-05-05 16:43 | 56.74593 | 0.82067 | 37090 ft | 482 kts | 91° |
| 2026-05-05 16:44 | 56.74554 | 0.94286 | 37083 ft | 482 kts | 91° |
| 2026-05-05 16:44 | 56.74507 | 1.06511 | 37084 ft | 483 kts | 91° |
| 2026-05-05 16:45 | 56.74449 | 1.18477 | 37078 ft | 483 kts | 91° |
| 2026-05-05 16:45 | 56.74381 | 1.30702 | 37082 ft | 483 kts | 91° |
| 2026-05-05 16:46 | 56.74298 | 1.42943 | 37076 ft | 483 kts | 92° |
| 2026-05-05 16:46 | 56.74209 | 1.55183 | 37078 ft | 483 kts | 92° |
| 2026-05-05 16:47 | 56.74107 | 1.67431 | 37080 ft | 483 kts | 92° |
| 2026-05-05 16:47 | 56.73995 | 1.79675 | 37070 ft | 483 kts | 92° |
| 2026-05-05 16:48 | 56.73864 | 1.91921 | 37070 ft | 484 kts | 92° |
| 2026-05-05 16:48 | 56.73719 | 2.04170 | 37069 ft | 484 kts | 92° |
| 2026-05-05 16:49 | 56.73568 | 2.16429 | 37061 ft | 484 kts | 92° |
| 2026-05-05 16:49 | 56.73409 | 2.28683 | 37064 ft | 484 kts | 92° |
| 2026-05-05 16:50 | 56.73231 | 2.40855 | 37050 ft | 484 kts | 92° |
| 2026-05-05 16:50 | 56.73035 | 2.53195 | 37053 ft | 484 kts | 93° |
| 2026-05-05 16:51 | 56.72836 | 2.65447 | 37046 ft | 484 kts | 93° |
| 2026-05-05 16:51 | 56.72626 | 2.77616 | 37042 ft | 484 kts | 93° |
| 2026-05-05 16:52 | 56.72394 | 2.89946 | 37047 ft | 484 kts | 93° |
| 2026-05-05 16:52 | 56.72149 | 3.02199 | 37042 ft | 484 kts | 93° |
| 2026-05-05 16:53 | 56.71899 | 3.14447 | 37040 ft | 484 kts | 93° |
| 2026-05-05 16:53 | 56.71640 | 3.26694 | 37039 ft | 484 kts | 94° |
| 2026-05-05 16:54 | 56.71374 | 3.38948 | 37037 ft | 484 kts | 94° |
| 2026-05-05 16:54 | 56.71096 | 3.51112 | 37030 ft | 484 kts | 94° |
| 2026-05-05 16:55 | 56.70793 | 3.63358 | 37031 ft | 485 kts | 94° |
| 2026-05-05 16:55 | 56.70227 | 3.75633 | 37038 ft | 482 kts | 104° |
| 2026-05-05 16:56 | 56.68717 | 3.87505 | 37041 ft | 482 kts | 105° |
| 2026-05-05 16:56 | 56.67194 | 3.99382 | 37048 ft | 482 kts | 105° |
| 2026-05-05 16:57 | 56.65661 | 4.11245 | 37038 ft | 482 kts | 105° |
| 2026-05-05 16:57 | 56.64115 | 4.23101 | 37040 ft | 482 kts | 105° |
| 2026-05-05 16:58 | 56.62559 | 4.34951 | 37040 ft | 482 kts | 106° |
| 2026-05-05 16:58 | 56.60982 | 4.46795 | 37049 ft | 482 kts | 106° |
| 2026-05-05 16:59 | 56.59395 | 4.58623 | 37048 ft | 482 kts | 106° |
| 2026-05-05 16:59 | 56.57807 | 4.70355 | 37035 ft | 482 kts | 106° |
| 2026-05-05 17:00 | 56.56202 | 4.82168 | 37042 ft | 483 kts | 106° |
| 2026-05-05 17:00 | 56.54589 | 4.93979 | 37036 ft | 483 kts | 107° |
| 2026-05-05 17:01 | 56.53023 | 5.05810 | 37038 ft | 484 kts | 103° |
| 2026-05-05 17:01 | 56.51908 | 5.17838 | 37031 ft | 485 kts | 100° |
| 2026-05-05 17:02 | 56.50937 | 5.30010 | 37038 ft | 485 kts | 101° |
| 2026-05-05 17:02 | 56.49861 | 5.41964 | 37027 ft | 484 kts | 102° |
| 2026-05-05 17:03 | 56.48672 | 5.53955 | 37034 ft | 484 kts | 102° |
| 2026-05-05 17:03 | 56.47475 | 5.65939 | 37018 ft | 484 kts | 102° |
| 2026-05-05 17:04 | 56.46296 | 5.77926 | 37023 ft | 484 kts | 102° |
| 2026-05-05 17:04 | 56.45110 | 5.89910 | 37027 ft | 484 kts | 102° |
| 2026-05-05 17:05 | 56.43902 | 6.01905 | 37029 ft | 485 kts | 102° |
| 2026-05-05 17:05 | 56.42684 | 6.13871 | 37030 ft | 485 kts | 103° |
| 2026-05-05 17:06 | 56.41453 | 6.25838 | 37006 ft | 484 kts | 103° |
| 2026-05-05 17:06 | 56.40213 | 6.37783 | 37023 ft | 483 kts | 103° |
| 2026-05-05 17:07 | 56.38973 | 6.49700 | 37025 ft | 483 kts | 103° |
| 2026-05-05 17:07 | 56.37722 | 6.61598 | 37025 ft | 482 kts | 103° |
| 2026-05-05 17:08 | 56.36449 | 6.73488 | 37024 ft | 482 kts | 103° |
| 2026-05-05 17:08 | 56.35169 | 6.85354 | 37024 ft | 482 kts | 103° |
| 2026-05-05 17:09 | 56.33884 | 6.97211 | 37016 ft | 482 kts | 103° |
| 2026-05-05 17:09 | 56.32579 | 7.09050 | 37017 ft | 482 kts | 104° |
| 2026-05-05 17:10 | 56.31271 | 7.20893 | 37015 ft | 482 kts | 104° |
| 2026-05-05 17:10 | 56.29949 | 7.32728 | 37013 ft | 482 kts | 104° |
| 2026-05-05 17:11 | 56.28606 | 7.44565 | 37012 ft | 482 kts | 104° |
| 2026-05-05 17:11 | 56.27255 | 7.56387 | 37005 ft | 482 kts | 104° |
| 2026-05-05 17:12 | 56.25905 | 7.68192 | 37010 ft | 482 kts | 104° |
| 2026-05-05 17:12 | 56.24535 | 7.79999 | 37007 ft | 482 kts | 104° |
| 2026-05-05 17:13 | 56.23157 | 7.91797 | 37010 ft | 482 kts | 104° |
| 2026-05-05 17:13 | 56.21770 | 8.03584 | 36993 ft | 482 kts | 104° |
| 2026-05-05 17:14 | 56.20373 | 8.15340 | 36999 ft | 482 kts | 105° |
| 2026-05-05 17:14 | 56.18958 | 8.27110 | 37000 ft | 482 kts | 105° |
| 2026-05-05 17:15 | 56.17523 | 8.38851 | 36997 ft | 482 kts | 105° |
| 2026-05-05 17:15 | 56.16083 | 8.50584 | 36995 ft | 482 kts | 105° |
| 2026-05-05 17:16 | 56.14642 | 8.62304 | 36987 ft | 482 kts | 105° |
| 2026-05-05 17:16 | 56.13193 | 8.74041 | 36982 ft | 482 kts | 105° |
| 2026-05-05 17:17 | 56.11730 | 8.85757 | 36984 ft | 482 kts | 105° |
| 2026-05-05 17:17 | 56.10248 | 8.97459 | 36979 ft | 482 kts | 105° |
| 2026-05-05 17:18 | 56.09006 | 9.07181 | 36981 ft | 482 kts | 105° |
| 2026-05-05 17:18 | 56.07506 | 9.18868 | 36962 ft | 482 kts | 105° |
| 2026-05-05 17:19 | 56.06751 | 9.24722 | 36706 ft | 482 kts | 106° |
| 2026-05-05 17:19 | 56.05995 | 9.30548 | 36447 ft | 481 kts | 106° |
| 2026-05-05 17:19 | 56.05233 | 9.36384 | 36181 ft | 481 kts | 106° |
| 2026-05-05 17:19 | 56.04461 | 9.42283 | 35925 ft | 481 kts | 106° |
| 2026-05-05 17:20 | 56.03704 | 9.48039 | 35672 ft | 482 kts | 106° |
| 2026-05-05 17:20 | 56.02933 | 9.53864 | 35027 ft | 485 kts | 106° |
| 2026-05-05 17:20 | 56.02145 | 9.59796 | 34013 ft | 493 kts | 106° |
| 2026-05-05 17:20 | 56.01350 | 9.65774 | 33102 ft | 495 kts | 106° |
| 2026-05-05 17:21 | 56.00561 | 9.71717 | 32531 ft | 489 kts | 106° |
| 2026-05-05 17:21 | 55.99779 | 9.77599 | 31873 ft | 485 kts | 106° |
| 2026-05-05 17:21 | 55.98998 | 9.83437 | 31227 ft | 482 kts | 107° |
| 2026-05-05 17:22 | 55.97446 | 9.94986 | 30008 ft | 474 kts | 107° |
| 2026-05-05 17:22 | 55.96675 | 10.00685 | 29390 ft | 470 kts | 107° |
| 2026-05-05 17:22 | 55.95928 | 10.06317 | 28837 ft | 464 kts | 106° |
| 2026-05-05 17:22 | 55.95205 | 10.11899 | 28288 ft | 459 kts | 106° |
| 2026-05-05 17:23 | 55.94501 | 10.17405 | 27756 ft | 454 kts | 106° |
| 2026-05-05 17:23 | 55.93801 | 10.22874 | 27210 ft | 449 kts | 106° |
| 2026-05-05 17:23 | 55.93110 | 10.28259 | 26730 ft | 443 kts | 106° |
| 2026-05-05 17:23 | 55.92422 | 10.33576 | 26214 ft | 438 kts | 106° |
| 2026-05-05 17:24 | 55.91732 | 10.38839 | 25746 ft | 433 kts | 106° |
| 2026-05-05 17:24 | 55.91045 | 10.44030 | 25273 ft | 429 kts | 106° |
| 2026-05-05 17:24 | 55.90360 | 10.49175 | 24812 ft | 424 kts | 106° |
| 2026-05-05 17:24 | 55.89683 | 10.54249 | 24355 ft | 420 kts | 106° |
| 2026-05-05 17:25 | 55.89061 | 10.59114 | 23919 ft | 417 kts | 105° |
| 2026-05-05 17:25 | 55.88654 | 10.62434 | 23616 ft | 415 kts | 105° |
| 2026-05-05 17:25 | 55.87858 | 10.69138 | 22940 ft | 411 kts | 104° |
| 2026-05-05 17:25 | 55.87276 | 10.74089 | 22484 ft | 407 kts | 104° |
| 2026-05-05 17:26 | 55.86693 | 10.78991 | 22014 ft | 404 kts | 105° |
| 2026-05-05 17:26 | 55.86102 | 10.83866 | 21552 ft | 401 kts | 105° |
| 2026-05-05 17:26 | 55.85507 | 10.88699 | 21078 ft | 398 kts | 105° |
| 2026-05-05 17:26 | 55.84913 | 10.93492 | 20614 ft | 396 kts | 105° |
| 2026-05-05 17:27 | 55.84279 | 10.98239 | 20147 ft | 394 kts | 107° |
| 2026-05-05 17:27 | 55.83594 | 11.02951 | 19673 ft | 392 kts | 108° |
| 2026-05-05 17:27 | 55.82886 | 11.07619 | 19215 ft | 391 kts | 108° |
| 2026-05-05 17:27 | 55.82170 | 11.12276 | 18741 ft | 390 kts | 108° |
| 2026-05-05 17:28 | 55.81464 | 11.16914 | 18291 ft | 389 kts | 108° |
| 2026-05-05 17:28 | 55.80767 | 11.21548 | 17860 ft | 385 kts | 108° |
| 2026-05-05 17:28 | 55.80092 | 11.26078 | 17719 ft | 373 kts | 108° |
| 2026-05-05 17:28 | 55.79437 | 11.30471 | 17578 ft | 362 kts | 108° |
| 2026-05-05 17:29 | 55.78798 | 11.34726 | 17438 ft | 352 kts | 108° |
| 2026-05-05 17:29 | 55.78173 | 11.38875 | 17227 ft | 345 kts | 108° |
| 2026-05-05 17:29 | 55.77554 | 11.42978 | 16929 ft | 342 kts | 107° |
| 2026-05-05 17:29 | 55.77152 | 11.47130 | 16611 ft | 341 kts | 100° |
| 2026-05-05 17:30 | 55.76828 | 11.51294 | 16281 ft | 339 kts | 100° |
| 2026-05-05 17:30 | 55.76505 | 11.55404 | 15771 ft | 335 kts | 100° |
| 2026-05-05 17:30 | 55.76183 | 11.59489 | 15207 ft | 332 kts | 100° |
| 2026-05-05 17:30 | 55.75861 | 11.63534 | 14663 ft | 329 kts | 100° |
| 2026-05-05 17:31 | 55.75540 | 11.67531 | 14136 ft | 326 kts | 100° |
| 2026-05-05 17:31 | 55.75221 | 11.71497 | 13589 ft | 323 kts | 99° |
| 2026-05-05 17:31 | 55.74905 | 11.75415 | 13003 ft | 319 kts | 99° |
| 2026-05-05 17:31 | 55.74591 | 11.79300 | 12418 ft | 316 kts | 99° |
| 2026-05-05 17:32 | 55.74282 | 11.83146 | 11971 ft | 313 kts | 99° |
| 2026-05-05 17:32 | 55.73975 | 11.86947 | 11561 ft | 310 kts | 99° |
| 2026-05-05 17:32 | 55.73663 | 11.90742 | 11165 ft | 311 kts | 99° |
| 2026-05-05 17:32 | 55.73347 | 11.94539 | 10826 ft | 310 kts | 99° |
| 2026-05-05 17:33 | 55.73036 | 11.98273 | 10674 ft | 301 kts | 99° |
| 2026-05-05 17:33 | 55.72736 | 12.01890 | 10526 ft | 293 kts | 99° |
| 2026-05-05 17:33 | 55.72440 | 12.05449 | 10268 ft | 290 kts | 99° |
| 2026-05-05 17:33 | 55.72124 | 12.08959 | 9973 ft | 286 kts | 105° |
| 2026-05-05 17:34 | 55.71355 | 12.12090 | 9655 ft | 271 kts | 128° |
| 2026-05-05 17:34 | 55.70059 | 12.14398 | 9197 ft | 260 kts | 150° |
| 2026-05-05 17:34 | 55.68443 | 12.15667 | 8703 ft | 252 kts | 169° |
| 2026-05-05 17:34 | 55.66747 | 12.16413 | 8175 ft | 251 kts | 168° |
| 2026-05-05 17:35 | 55.65061 | 12.17162 | 7677 ft | 249 kts | 168° |
| 2026-05-05 17:35 | 55.63383 | 12.17910 | 7188 ft | 247 kts | 167° |
| 2026-05-05 17:35 | 55.61713 | 12.18652 | 6678 ft | 248 kts | 167° |
| 2026-05-05 17:35 | 55.60038 | 12.19388 | 6140 ft | 248 kts | 167° |
| 2026-05-05 17:36 | 55.58360 | 12.20078 | 5640 ft | 247 kts | 167° |
| 2026-05-05 17:36 | 55.56694 | 12.20727 | 5180 ft | 243 kts | 167° |
| 2026-05-05 17:36 | 55.55048 | 12.21349 | 4679 ft | 241 kts | 163° |
| 2026-05-05 17:36 | 55.53569 | 12.22629 | 4207 ft | 235 kts | 138° |
| 2026-05-05 17:37 | 55.52586 | 12.24836 | 3749 ft | 227 kts | 112° |
| 2026-05-05 17:37 | 55.52148 | 12.27471 | 3391 ft | 226 kts | 101° |
| 2026-05-05 17:37 | 55.51722 | 12.30160 | 3091 ft | 225 kts | 110° |
| 2026-05-05 17:37 | 55.50937 | 12.32535 | 2877 ft | 224 kts | 127° |
| 2026-05-05 17:38 | 55.49926 | 12.34561 | 2678 ft | 221 kts | 129° |
| 2026-05-05 17:38 | 55.49019 | 12.36716 | 2544 ft | 211 kts | 114° |
| 2026-05-05 17:38 | 55.48571 | 12.39084 | 2492 ft | 197 kts | 95° |
| 2026-05-05 17:38 | 55.48556 | 12.41415 | 2496 ft | 187 kts | 78° |
| 2026-05-05 17:39 | 55.48908 | 12.43575 | 2498 ft | 181 kts | 62° |
| 2026-05-05 17:39 | 55.49571 | 12.45414 | 2478 ft | 173 kts | 46° |
| 2026-05-05 17:39 | 55.50413 | 12.46802 | 2348 ft | 161 kts | 39° |
| 2026-05-05 17:39 | 55.51249 | 12.48085 | 2148 ft | 157 kts | 39° |
| 2026-05-05 17:40 | 55.52067 | 12.49342 | 1941 ft | 155 kts | 38° |
| 2026-05-05 17:40 | 55.52880 | 12.50590 | 1742 ft | 154 kts | 39° |
| 2026-05-05 17:40 | 55.53659 | 12.51789 | 1551 ft | 141 kts | 39° |
| 2026-05-05 17:40 | 55.54371 | 12.52884 | 1346 ft | 131 kts | 39° |
| 2026-05-05 17:41 | 55.55048 | 12.53925 | 1162 ft | 128 kts | 39° |
| 2026-05-05 17:41 | 55.55712 | 12.54947 | 992 ft | 126 kts | 40° |
| 2026-05-05 17:41 | 55.56372 | 12.55963 | 809 ft | 126 kts | 38° |
| 2026-05-05 17:41 | 55.57035 | 12.56984 | 643 ft | 127 kts | 38° |
| 2026-05-05 17:42 | 55.57691 | 12.57998 | 466 ft | 127 kts | 38° |
| 2026-05-05 17:42 | 55.58358 | 12.59041 | 290 ft | 127 kts | 36° |
| 2026-05-05 17:42 | 55.59024 | 12.60063 | 119 ft | 127 kts | 36° |
| 2026-05-05 17:42 | 55.59682 | 12.61064 | 30 ft | 116 kts | 38° |
| 2026-05-05 17:43 | 55.60088 | 12.61675 | 27 ft | 46 kts | 43° |
| 2026-05-05 17:43 | 55.60316 | 12.62041 | 23 ft | 42 kts | 40° |
| 2026-05-05 17:43 | 55.60519 | 12.62291 | 29 ft | 28 kts | 22° |
| 2026-05-05 17:43 | 55.60711 | 12.62368 | 24 ft | 29 kts | 12° |
| 2026-05-05 17:44 | 55.60867 | 12.62514 | 24 ft | 22 kts | 41° |
| 2026-05-05 17:44 | 55.60982 | 12.62689 | 24 ft | 21 kts | 40° |
| 2026-05-05 17:44 | 55.61099 | 12.62869 | 24 ft | 23 kts | 41° |
| 2026-05-05 17:44 | 55.61223 | 12.63066 | 24 ft | 25 kts | 41° |
| 2026-05-05 17:45 | 55.61356 | 12.63271 | 24 ft | 26 kts | 41° |
| 2026-05-05 17:45 | 55.61495 | 12.63488 | 24 ft | 27 kts | 41° |
| 2026-05-05 17:45 | 55.61630 | 12.63696 | 24 ft | 24 kts | 43° |
| 2026-05-05 17:45 | 55.61754 | 12.63888 | 24 ft | 24 kts | 41° |
| 2026-05-05 17:46 | 55.61887 | 12.64081 | 26 ft | 25 kts | 31° |
| 2026-05-05 17:46 | 55.62047 | 12.64217 | 24 ft | 26 kts | 25° |
| 2026-05-05 17:46 | 55.62200 | 12.64344 | 22 ft | 21 kts | 27° |
| 2026-05-05 17:46 | 55.62283 | 12.64536 | 23 ft | 20 kts | 65° |
| 2026-05-05 17:47 | 55.62340 | 12.64758 | 24 ft | 18 kts | 65° |
| 2026-05-05 17:47 | 55.62336 | 12.64914 | 25 ft | 13 kts | 125° |
| 2026-05-05 17:47 | 55.62290 | 12.65039 | 25 ft | 12 kts | 122° |
| 2026-05-05 17:47 | 55.62286 | 12.65163 | 24 ft | 10 kts | 59° |
| 2026-05-05 17:48 | 55.62352 | 12.65204 | 24 ft | 12 kts | 358° |
| 2026-05-05 17:48 | 55.62434 | 12.65240 | 27 ft | 13 kts | 59° |
| 2026-05-05 17:48 | 55.62441 | 12.65402 | 24 ft | 12 kts | 90° |
| 2026-05-05 17:48 | 55.62446 | 12.65505 | 26 ft | 6 kts | 64° |
| 2026-05-05 17:49 | 55.62476 | 12.65540 | 26 ft | 5 kts | 25° |
| 2026-05-05 17:49 | 55.62506 | 12.65563 | 24 ft | 3 kts | 24° |
| 2026-05-05 17:49 | 55.62517 | 12.65572 | 24 ft | 1 kts | 24° |
| 2026-05-05 17:49 | 55.62518 | 12.65573 | 24 ft | 0 kts | 24° |